createdAt,value
2022-12-01T00:01:22.133Z,3.60
2022-12-01T00:03:49.825Z,3.50
2022-12-01T00:06:19.946Z,3.40
2022-12-01T00:09:04.702Z,3.40
2022-12-01T00:11:32.809Z,3.50
2022-12-01T00:14:01.665Z,3.40
2022-12-01T00:16:29.356Z,3.50
2022-12-01T00:18:57.758Z,3.60
2022-12-01T00:21:26.412Z,3.60
2022-12-01T00:23:56.579Z,3.60
2022-12-01T00:26:25.119Z,3.60
2022-12-01T00:28:56.022Z,3.50
2022-12-01T00:31:23.437Z,3.50
2022-12-01T00:33:51.499Z,3.30
2022-12-01T00:36:19.234Z,3.30
2022-12-01T00:38:47.106Z,3.50
2022-12-01T00:41:14.628Z,3.50
2022-12-01T00:43:42.580Z,3.70
2022-12-01T00:46:10.050Z,3.80
2022-12-01T00:48:37.719Z,3.90
2022-12-01T00:51:05.410Z,4.10
2022-12-01T00:53:33.580Z,4.20
2022-12-01T00:56:00.935Z,4.30
2022-12-01T00:58:28.898Z,4.20
2022-12-01T01:01:01.468Z,4.10
2022-12-01T01:03:30.395Z,4.00
2022-12-01T01:06:08.157Z,3.90
2022-12-01T01:08:36.003Z,3.70
2022-12-01T01:11:04.544Z,3.50
2022-12-01T01:13:32.512Z,3.60
2022-12-01T01:16:01.831Z,3.50
2022-12-01T01:18:29.721Z,3.60
2022-12-01T01:21:06.018Z,3.70
2022-12-01T01:23:34.880Z,3.50
2022-12-01T01:26:12.578Z,3.50
2022-12-01T01:28:41.966Z,3.30
2022-12-01T01:31:11.526Z,3.30
2022-12-01T01:33:39.493Z,3.10
2022-12-01T01:36:07.169Z,3.10
2022-12-01T01:38:35.894Z,3.00
2022-12-01T01:41:04.754Z,2.90
2022-12-01T01:43:54.223Z,2.80
2022-12-01T01:46:28.982Z,2.80
2022-12-01T01:49:00.500Z,2.80
2022-12-01T01:51:55.564Z,2.80
2022-12-01T01:54:31.784Z,2.80
2022-12-01T01:57:02.452Z,2.80
2022-12-01T01:59:47.679Z,2.60
2022-12-01T02:02:15.519Z,2.70
2022-12-01T02:04:47.706Z,2.80
2022-12-01T02:07:18.775Z,2.80
2022-12-01T02:09:46.561Z,2.90
2022-12-01T02:12:44.008Z,2.90
2022-12-01T02:15:30.950Z,2.80
2022-12-01T02:18:01.050Z,2.70
2022-12-01T02:20:50.656Z,2.60
2022-12-01T02:23:31.825Z,2.50
2022-12-01T02:26:16.194Z,2.50
2022-12-01T02:28:56.566Z,2.50
2022-12-01T02:31:31.429Z,2.50
2022-12-01T02:34:12.899Z,2.50
2022-12-01T02:36:52.809Z,2.70
2022-12-01T02:39:32.736Z,2.80
2022-12-01T02:42:39.714Z,2.80
2022-12-01T02:45:13.893Z,2.80
2022-12-01T02:47:45.062Z,2.70
2022-12-01T02:50:13.636Z,2.70
2022-12-01T02:52:42.964Z,2.80
2022-12-01T02:55:10.547Z,3.00
2022-12-01T02:57:38.211Z,3.10
2022-12-01T03:00:06.961Z,3.30
2022-12-01T03:02:49.637Z,3.50
2022-12-01T03:05:26.876Z,3.70
2022-12-01T03:08:14.138Z,3.90
2022-12-01T03:10:56.955Z,3.90
2022-12-01T03:13:56.359Z,3.90
2022-12-01T03:16:41.407Z,3.80
2022-12-01T03:19:18.821Z,3.60
2022-12-01T03:22:20.365Z,3.50
2022-12-01T03:24:49.603Z,3.40
2022-12-01T03:27:22.578Z,3.50
2022-12-01T03:29:55.098Z,3.60
2022-12-01T03:32:29.495Z,3.90
2022-12-01T03:35:04.995Z,3.90
2022-12-01T03:37:38.070Z,3.60
2022-12-01T03:40:08.912Z,3.50
2022-12-01T03:42:45.092Z,3.30
2022-12-01T03:45:17.916Z,3.20
2022-12-01T03:47:46.152Z,3.30
2022-12-01T03:50:14.757Z,3.50
2022-12-01T03:52:59.992Z,3.70
2022-12-01T03:55:30.649Z,3.90
2022-12-01T03:58:06.377Z,3.90
2022-12-01T04:00:35.907Z,4.10
2022-12-01T04:03:04.581Z,4.20
2022-12-01T04:05:34.747Z,4.20
2022-12-01T04:08:02.498Z,4.30
2022-12-01T04:10:30.430Z,4.10
2022-12-01T04:12:59.825Z,4.00
2022-12-01T04:15:28.582Z,3.90
2022-12-01T04:17:55.910Z,4.00
2022-12-01T04:20:23.890Z,3.90
2022-12-01T04:22:51.562Z,3.90
2022-12-01T04:25:19.280Z,3.70
2022-12-01T04:27:46.931Z,3.80
2022-12-01T04:30:15.114Z,3.80
2022-12-01T04:32:44.058Z,3.90
2022-12-01T04:35:12.930Z,3.80
2022-12-01T04:37:40.433Z,3.60
2022-12-01T04:40:08.972Z,3.60
2022-12-01T04:42:36.551Z,3.80
2022-12-01T04:45:04.739Z,4.00
2022-12-01T04:47:32.161Z,4.00
2022-12-01T04:50:00.593Z,3.90
2022-12-01T04:52:33.616Z,3.90
2022-12-01T04:55:03.915Z,4.30
2022-12-01T04:57:31.164Z,4.50
2022-12-01T04:59:58.825Z,4.90
2022-12-01T05:02:26.328Z,5.00
2022-12-01T05:04:54.167Z,5.30
2022-12-01T05:07:21.501Z,5.40
2022-12-01T05:09:49.376Z,5.50
2022-12-01T05:12:17.583Z,5.50
2022-12-01T05:14:46.372Z,5.50
2022-12-01T05:17:13.802Z,5.70
2022-12-01T05:19:55.565Z,5.80
2022-12-01T05:22:56.787Z,6.00
2022-12-01T05:25:11.195Z,6.10
2022-12-01T05:27:38.625Z,5.90
2022-12-01T05:30:06.835Z,6.20
2022-12-01T05:32:34.297Z,6.30
2022-12-01T05:35:02.357Z,6.30
2022-12-01T05:37:33.584Z,6.00
2022-12-01T05:40:02.324Z,5.70
2022-12-01T05:42:29.798Z,5.30
2022-12-01T05:44:57.462Z,4.30
2022-12-01T05:47:25.107Z,2.10
2022-12-01T05:49:52.757Z,1.00
2022-12-01T05:52:20.279Z,0.40
2022-12-01T05:54:47.979Z,0.00
2022-12-01T05:57:15.243Z,-0.20
2022-12-01T05:59:42.950Z,-0.40
2022-12-01T06:02:10.548Z,-0.50
2022-12-01T06:04:38.319Z,-0.60
2022-12-01T06:07:05.770Z,-0.60
2022-12-01T06:09:33.719Z,-0.70
2022-12-01T06:12:01.046Z,-0.80
2022-12-01T06:14:28.537Z,-0.80
2022-12-01T06:16:56.001Z,-0.80
2022-12-01T06:19:23.976Z,-0.90
2022-12-01T06:21:51.524Z,-0.90
2022-12-01T06:24:19.739Z,-0.90
2022-12-01T06:26:47.121Z,-0.90
2022-12-01T06:29:14.992Z,-0.90
2022-12-01T06:31:42.774Z,-0.90
2022-12-01T06:34:11.022Z,-0.90
2022-12-01T06:36:38.638Z,-0.90
2022-12-01T06:39:10.371Z,-0.90
2022-12-01T06:41:38.863Z,-0.90
2022-12-01T06:44:06.742Z,-0.90
2022-12-01T06:46:34.378Z,-0.80
2022-12-01T06:49:02.529Z,-0.90
2022-12-01T06:51:31.567Z,-0.90
2022-12-01T06:54:05.048Z,-0.90
2022-12-01T06:56:33.159Z,-0.90
2022-12-01T06:59:01.270Z,-1.00
2022-12-01T07:01:28.886Z,-1.00
2022-12-01T07:03:56.807Z,-1.00
2022-12-01T07:06:24.377Z,-1.00
2022-12-01T07:08:53.323Z,-1.00
2022-12-01T07:11:20.665Z,-1.00
2022-12-01T07:13:50.614Z,-1.00
2022-12-01T07:16:18.729Z,-1.00
2022-12-01T07:18:46.417Z,-1.00
2022-12-01T07:21:15.302Z,-1.00
2022-12-01T07:23:43.449Z,-1.00
2022-12-01T07:26:13.465Z,-0.90
2022-12-01T07:28:41.623Z,-0.90
2022-12-01T07:31:14.722Z,-0.90
2022-12-01T07:33:42.938Z,-0.80
2022-12-01T07:36:12.052Z,-0.80
2022-12-01T07:38:39.918Z,-0.80
2022-12-01T07:41:21.277Z,-0.70
2022-12-01T07:43:51.233Z,-0.70
2022-12-01T07:46:25.189Z,-0.70
2022-12-01T07:48:54.349Z,-0.70
2022-12-01T07:51:24.157Z,-0.70
2022-12-01T07:53:52.727Z,-0.70
2022-12-01T07:56:21.576Z,-0.70
2022-12-01T07:58:49.423Z,-0.70
2022-12-01T08:01:19.697Z,-0.70
2022-12-01T08:03:52.037Z,-0.70
2022-12-01T08:06:20.235Z,-0.60
2022-12-01T08:08:48.654Z,-0.60
2022-12-01T08:11:21.482Z,-0.60
2022-12-01T08:13:50.622Z,-0.60
2022-12-01T08:16:20.445Z,-0.60
2022-12-01T08:18:48.608Z,-0.70
2022-12-01T08:21:18.444Z,-0.60
2022-12-01T08:23:46.816Z,-0.60
2022-12-01T08:26:17.173Z,-0.60
2022-12-01T08:28:45.947Z,-0.60
2022-12-01T08:31:16.864Z,-0.60
2022-12-01T08:33:44.906Z,-0.60
2022-12-01T08:36:12.502Z,-0.50
2022-12-01T08:38:42.857Z,-0.60
2022-12-01T08:41:10.400Z,-0.50
2022-12-01T08:43:58.003Z,-0.50
2022-12-01T08:46:33.199Z,-0.50
2022-12-01T08:49:02.123Z,-0.50
2022-12-01T08:51:29.729Z,-0.50
2022-12-01T08:53:59.036Z,-0.40
2022-12-01T08:56:30.091Z,-0.50
2022-12-01T08:58:58.345Z,-0.40
2022-12-01T09:01:26.681Z,-0.40
2022-12-01T09:04:06.138Z,-0.40
2022-12-01T09:06:39.669Z,-0.40
2022-12-01T09:09:09.721Z,-0.30
2022-12-01T09:11:37.640Z,-0.30
2022-12-01T09:14:05.353Z,0.00
2022-12-01T09:16:32.957Z,0.50
2022-12-01T09:19:00.879Z,1.00
2022-12-01T09:21:32.909Z,1.40
2022-12-01T09:24:01.801Z,1.90
2022-12-01T09:26:29.815Z,2.30
2022-12-01T09:29:02.777Z,2.50
2022-12-01T09:31:30.946Z,2.90
2022-12-01T09:34:04.696Z,3.20
2022-12-01T09:36:34.213Z,3.50
2022-12-01T09:39:03.163Z,3.60
2022-12-01T09:41:32.998Z,3.90
2022-12-01T09:44:15.460Z,4.20
2022-12-01T09:47:03.762Z,4.40
2022-12-01T09:49:43.238Z,4.30
2022-12-01T09:52:14.076Z,4.50
2022-12-01T09:54:42.017Z,4.50
2022-12-01T09:57:32.385Z,4.70
2022-12-01T10:00:05.142Z,4.60
2022-12-01T10:03:01.843Z,4.40
2022-12-01T10:05:34.692Z,4.40
2022-12-01T10:08:05.904Z,4.40
2022-12-01T10:10:35.786Z,4.50
2022-12-01T10:13:08.628Z,4.80
2022-12-01T10:16:04.283Z,5.00
2022-12-01T10:18:34.650Z,5.00
2022-12-01T10:21:16.543Z,4.70
2022-12-01T10:24:04.199Z,4.50
2022-12-01T10:26:44.478Z,4.70
2022-12-01T10:29:25.889Z,4.50
2022-12-01T10:31:54.864Z,4.90
2022-12-01T10:34:29.518Z,5.00
2022-12-01T10:36:58.088Z,5.10
2022-12-01T10:39:38.829Z,5.00
2022-12-01T10:42:12.140Z,5.00
2022-12-01T10:44:40.555Z,5.00
2022-12-01T10:47:24.023Z,5.00
2022-12-01T10:49:52.569Z,5.20
2022-12-01T10:52:38.678Z,5.30
2022-12-01T10:55:23.221Z,5.30
2022-12-01T10:57:52.653Z,5.20
2022-12-01T11:00:58.083Z,4.90
2022-12-01T11:03:22.736Z,4.90
2022-12-01T11:05:58.362Z,4.90
2022-12-01T11:08:35.167Z,5.10
2022-12-01T11:11:02.952Z,5.20
2022-12-01T11:13:35.481Z,5.30
2022-12-01T11:16:06.282Z,5.00
2022-12-01T11:18:38.820Z,4.90
2022-12-01T11:21:27.208Z,5.00
2022-12-01T11:23:56.704Z,5.30
2022-12-01T11:26:28.676Z,5.60
2022-12-01T11:29:03.327Z,5.60
2022-12-01T11:31:49.018Z,5.50
2022-12-01T11:34:34.417Z,5.60
2022-12-01T11:37:09.481Z,5.70
2022-12-01T11:39:40.221Z,5.60
2022-12-01T11:42:29.062Z,5.70
2022-12-01T11:45:24.999Z,5.70
2022-12-01T11:48:05.524Z,5.60
2022-12-01T11:50:38.473Z,5.90
2022-12-01T11:53:29.980Z,6.00
2022-12-01T11:56:16.102Z,6.10
2022-12-01T11:58:45.602Z,6.10
2022-12-01T12:01:39.559Z,6.20
2022-12-01T12:04:23.695Z,6.30
2022-12-01T12:06:58.305Z,6.20
2022-12-01T12:09:32.037Z,6.10
2022-12-01T12:12:27.433Z,6.30
2022-12-01T12:15:06.213Z,6.40
2022-12-01T12:17:47.858Z,6.40
2022-12-01T12:20:29.442Z,6.30
2022-12-01T12:23:03.603Z,6.30
2022-12-01T12:25:57.958Z,6.20
2022-12-01T12:28:53.819Z,6.10
2022-12-01T12:31:33.777Z,6.20
2022-12-01T12:34:22.978Z,6.00
2022-12-01T12:37:05.458Z,5.90
2022-12-01T12:40:00.969Z,5.80
2022-12-01T12:42:52.221Z,6.20
2022-12-01T12:45:52.568Z,6.60
2022-12-01T12:48:50.850Z,6.80
2022-12-01T12:51:36.556Z,6.60
2022-12-01T12:54:24.120Z,6.90
2022-12-01T12:57:06.004Z,7.20
2022-12-01T12:59:39.575Z,7.00
2022-12-01T13:02:33.552Z,7.00
2022-12-01T13:05:21.232Z,6.90
2022-12-01T13:08:06.569Z,5.30
2022-12-01T13:10:47.253Z,5.50
2022-12-01T13:13:31.795Z,6.00
2022-12-01T13:16:02.885Z,6.20
2022-12-01T13:18:39.384Z,6.20
2022-12-01T13:21:09.498Z,6.40
2022-12-01T13:23:39.408Z,6.20
2022-12-01T13:26:09.538Z,6.40
2022-12-01T13:28:57.964Z,6.60
2022-12-01T13:31:25.726Z,6.80
2022-12-01T13:34:02.901Z,6.50
2022-12-01T13:36:46.622Z,6.70
2022-12-01T13:39:21.585Z,6.80
2022-12-01T13:41:59.374Z,6.90
2022-12-01T13:44:42.250Z,6.70
2022-12-01T13:47:12.803Z,6.60
2022-12-01T13:49:45.632Z,6.80
2022-12-01T13:52:16.416Z,6.70
2022-12-01T13:55:02.655Z,6.90
2022-12-01T13:57:33.127Z,7.10
2022-12-01T14:00:00.595Z,6.80
2022-12-01T14:02:31.549Z,6.80
2022-12-01T14:05:23.484Z,7.00
2022-12-01T14:07:52.425Z,7.20
2022-12-01T14:10:30.394Z,7.20
2022-12-01T14:13:05.059Z,7.00
2022-12-01T14:15:43.014Z,7.00
2022-12-01T14:18:38.077Z,7.20
2022-12-01T14:21:10.658Z,7.00
2022-12-01T14:23:58.678Z,7.20
2022-12-01T14:26:31.813Z,7.20
2022-12-01T14:29:02.639Z,7.20
2022-12-01T14:31:36.614Z,7.00
2022-12-01T14:34:35.740Z,7.00
2022-12-01T14:37:14.052Z,7.20
2022-12-01T14:39:57.901Z,6.90
2022-12-01T14:42:56.641Z,6.90
2022-12-01T14:45:55.759Z,6.70
2022-12-01T14:48:41.038Z,6.50
2022-12-01T14:51:26.591Z,6.70
2022-12-01T14:53:57.655Z,6.90
2022-12-01T14:56:26.330Z,6.80
2022-12-01T14:58:57.020Z,6.30
2022-12-01T15:01:31.164Z,6.20
2022-12-01T15:04:01.046Z,6.20
2022-12-01T15:06:30.928Z,6.40
2022-12-01T15:12:05.068Z,6.00
2022-12-01T15:14:38.346Z,6.00
2022-12-01T15:17:09.199Z,6.00
2022-12-01T15:19:40.249Z,5.90
2022-12-01T15:22:15.651Z,6.00
2022-12-01T15:24:44.388Z,6.00
2022-12-01T15:27:27.806Z,5.90
2022-12-01T15:29:56.456Z,5.80
2022-12-01T15:32:24.975Z,5.90
2022-12-01T15:34:55.780Z,6.00
2022-12-01T15:37:26.202Z,5.90
2022-12-01T15:40:43.471Z,6.00
2022-12-01T15:43:14.533Z,6.10
2022-12-01T15:45:59.463Z,6.00
2022-12-01T15:48:34.397Z,6.20
2022-12-01T15:51:17.525Z,6.30
2022-12-01T15:53:59.017Z,6.30
2022-12-01T15:56:31.556Z,6.30
2022-12-01T15:59:14.173Z,6.10
2022-12-01T16:01:44.483Z,5.80
2022-12-01T16:04:27.246Z,5.80
2022-12-01T16:07:06.266Z,6.00
2022-12-01T16:09:56.380Z,5.80
2022-12-01T16:12:26.706Z,5.80
2022-12-01T16:15:10.616Z,5.90
2022-12-01T16:17:52.790Z,6.20
2022-12-01T16:20:23.495Z,6.30
2022-12-01T16:23:19.549Z,6.40
2022-12-01T16:25:48.871Z,6.40
2022-12-01T16:28:37.222Z,6.70
2022-12-01T16:31:08.295Z,6.40
2022-12-01T16:33:39.036Z,6.20
2022-12-01T16:36:07.918Z,6.10
2022-12-01T16:38:35.672Z,6.10
2022-12-01T16:41:18.593Z,6.10
2022-12-01T16:43:59.400Z,6.20
2022-12-01T16:46:34.331Z,5.90
2022-12-01T16:49:01.948Z,5.70
2022-12-01T16:51:54.105Z,5.70
2022-12-01T16:54:18.185Z,5.80
2022-12-01T16:56:45.687Z,5.70
2022-12-01T16:59:14.226Z,5.80
2022-12-01T17:01:41.647Z,5.90
2022-12-01T17:04:09.370Z,6.00
2022-12-01T17:06:38.475Z,6.20
2022-12-01T17:09:06.146Z,6.10
2022-12-01T17:11:33.810Z,6.10
2022-12-01T17:14:01.460Z,6.30
2022-12-01T17:16:29.429Z,6.30
2022-12-01T17:18:59.878Z,6.20
2022-12-01T17:21:27.870Z,6.30
2022-12-01T17:23:55.641Z,6.20
2022-12-01T17:26:23.984Z,6.00
2022-12-01T17:28:55.279Z,5.90
2022-12-01T17:31:22.830Z,5.70
2022-12-01T17:33:51.649Z,5.50
2022-12-01T17:36:19.242Z,5.50
2022-12-01T17:38:47.938Z,5.60
2022-12-01T17:41:18.706Z,5.60
2022-12-01T17:43:46.563Z,5.70
2022-12-01T17:46:14.544Z,5.30
2022-12-01T17:48:45.705Z,5.00
2022-12-01T17:51:15.227Z,5.00
2022-12-01T17:53:43.572Z,5.00
2022-12-01T17:56:13.874Z,5.30
2022-12-01T17:58:42.488Z,5.50
2022-12-01T18:01:16.068Z,5.50
2022-12-01T18:03:44.689Z,5.50
2022-12-01T18:06:12.953Z,5.80
2022-12-01T18:08:42.086Z,5.90
2022-12-01T18:11:15.835Z,6.00
2022-12-01T18:13:47.006Z,6.30
2022-12-01T18:16:17.486Z,6.20
2022-12-01T18:18:46.015Z,6.20
2022-12-01T18:21:15.549Z,6.20
2022-12-01T18:23:55.143Z,6.30
2022-12-01T18:26:23.568Z,6.20
2022-12-01T18:28:58.749Z,6.30
2022-12-01T18:31:27.033Z,6.20
2022-12-01T18:33:57.431Z,6.00
2022-12-01T18:36:26.184Z,6.10
2022-12-01T18:38:54.620Z,6.00
2022-12-01T18:41:22.415Z,5.60
2022-12-01T18:43:50.535Z,5.50
2022-12-01T18:46:20.089Z,5.30
2022-12-01T18:48:50.690Z,5.20
2022-12-01T18:51:19.613Z,5.10
2022-12-01T18:53:48.250Z,5.10
2022-12-01T18:56:15.746Z,5.00
2022-12-01T18:58:43.541Z,5.10
2022-12-01T19:01:26.515Z,5.20
2022-12-01T19:03:59.481Z,5.30
2022-12-01T19:06:29.545Z,5.50
2022-12-01T19:09:01.831Z,5.70
2022-12-01T19:11:30.138Z,5.70
2022-12-01T19:13:58.058Z,5.80
2022-12-01T19:16:27.055Z,6.00
2022-12-01T19:18:54.966Z,6.10
2022-12-01T19:21:22.366Z,6.10
2022-12-01T19:23:50.293Z,5.90
2022-12-01T19:26:20.446Z,5.70
2022-12-01T19:28:48.435Z,5.70
2022-12-01T19:31:19.652Z,5.70
2022-12-01T19:33:47.786Z,5.80
2022-12-01T19:36:25.096Z,5.90
2022-12-01T19:38:53.228Z,6.00
2022-12-01T19:41:25.334Z,5.90
2022-12-01T19:43:53.991Z,5.60
2022-12-01T19:46:23.671Z,5.30
2022-12-01T19:49:00.428Z,5.10
2022-12-01T19:51:35.542Z,5.30
2022-12-01T19:54:05.942Z,5.20
2022-12-01T19:56:33.973Z,5.00
2022-12-01T19:59:02.296Z,5.00
2022-12-01T20:01:29.824Z,5.10
2022-12-01T20:03:57.704Z,5.50
2022-12-01T20:06:30.212Z,5.50
2022-12-01T20:09:01.040Z,5.60
2022-12-01T20:11:35.638Z,5.60
2022-12-01T20:14:05.984Z,5.60
2022-12-01T20:16:34.209Z,5.60
2022-12-01T20:19:04.326Z,5.60
2022-12-01T20:21:35.662Z,5.60
2022-12-01T20:24:06.673Z,5.60
2022-12-01T20:26:37.581Z,5.80
2022-12-01T20:29:11.939Z,5.80
2022-12-01T20:31:40.967Z,5.70
2022-12-01T20:34:12.160Z,5.80
2022-12-01T20:36:40.848Z,5.80
2022-12-01T20:39:10.170Z,5.80
2022-12-01T20:41:38.605Z,5.90
2022-12-01T20:44:07.856Z,5.80
2022-12-01T20:46:37.069Z,5.90
2022-12-01T20:49:05.618Z,5.80
2022-12-01T20:51:33.698Z,5.80
2022-12-01T20:54:27.277Z,5.60
2022-12-01T20:56:50.912Z,5.50
2022-12-01T20:59:18.499Z,5.40
2022-12-01T21:01:46.105Z,5.30
2022-12-01T21:04:13.926Z,5.20
2022-12-01T21:06:41.419Z,5.30
2022-12-01T21:09:09.299Z,5.30
2022-12-01T21:12:12.821Z,5.50
2022-12-01T21:15:01.595Z,5.40
2022-12-01T21:17:46.681Z,5.40
2022-12-01T21:20:22.191Z,5.30
2022-12-01T21:22:51.549Z,5.10
2022-12-01T21:25:23.166Z,5.30
2022-12-01T21:27:51.243Z,5.30
2022-12-01T21:30:26.555Z,5.10
2022-12-01T21:32:54.415Z,5.00
2022-12-01T21:35:25.198Z,5.00
2022-12-01T21:38:00.809Z,5.10
2022-12-01T21:40:28.835Z,5.10
2022-12-01T21:43:00.610Z,5.10
2022-12-01T21:45:32.397Z,5.10
2022-12-01T21:48:29.134Z,5.00
2022-12-01T21:51:25.655Z,5.10
2022-12-01T21:53:55.921Z,5.10
2022-12-01T21:56:29.111Z,5.20
2022-12-01T21:58:59.684Z,5.30
2022-12-01T22:01:34.906Z,5.30
2022-12-01T22:04:11.256Z,5.30
2022-12-01T22:06:41.310Z,5.50
2022-12-01T22:09:20.188Z,5.50
2022-12-01T22:12:10.826Z,5.50
2022-12-01T22:14:39.312Z,5.50
2022-12-01T22:17:07.050Z,5.60
2022-12-01T22:19:38.311Z,5.60
2022-12-01T22:22:09.204Z,5.50
2022-12-01T22:24:43.896Z,5.30
2022-12-01T22:27:36.142Z,5.40
2022-12-01T22:30:06.834Z,5.50
2022-12-01T22:32:38.388Z,5.40
2022-12-01T22:35:14.895Z,5.40
2022-12-01T22:37:51.250Z,5.30
2022-12-01T22:40:34.885Z,5.10
2022-12-01T22:43:16.341Z,5.10
2022-12-01T22:45:49.478Z,5.10
2022-12-01T22:48:28.246Z,5.10
2022-12-01T22:51:22.362Z,5.00
2022-12-01T22:53:52.036Z,4.90
2022-12-01T22:56:49.991Z,4.70
2022-12-01T22:59:28.389Z,4.60
2022-12-01T23:02:01.589Z,4.60
2022-12-01T23:04:37.885Z,4.50
2022-12-01T23:07:26.091Z,4.50
2022-12-01T23:09:55.779Z,4.40
2022-12-01T23:12:30.398Z,4.50
2022-12-01T23:15:21.973Z,4.50
2022-12-01T23:17:50.388Z,4.70
2022-12-01T23:20:31.119Z,4.60
2022-12-01T23:23:04.896Z,4.50
2022-12-01T23:25:35.352Z,4.70
2022-12-01T23:28:06.469Z,4.70
2022-12-01T23:30:36.016Z,4.70
2022-12-01T23:33:06.856Z,4.60
2022-12-01T23:35:55.253Z,4.70
2022-12-01T23:38:31.684Z,4.80
2022-12-01T23:41:01.958Z,4.70
2022-12-01T23:43:33.315Z,4.70
2022-12-01T23:46:09.926Z,4.60
2022-12-01T23:48:55.799Z,4.50
2022-12-01T23:51:35.583Z,4.40
2022-12-01T23:54:12.941Z,4.30
2022-12-01T23:56:40.728Z,4.30
2022-12-01T23:59:13.794Z,4.40
